Time;durP1;ratioP1;P1;durP2;ratioP2;P2;SDS_P1;SDS_P2;PMS_P1;PMS_P2;Temp;Humidity;BMP_temperature;BMP_pressure;BME280_temperature;BME280_humidity;BME280_pressure;Samples;Min_cycle;Max_cycle;Signal;HPM_P1;HPM_P2
2021/07/30 11:57:30;;;;;;;6.10;2.00;;;;;;;;;;2080977;28;100024;-15
2021/07/30 11:58:31;;;;;;;9.82;2.45;;;;;;;;;;2080898;27;99916;-16
2021/07/30 11:59:47;;;;;;;;;;;;;;;;;;2080369;28;100020;-17
2021/07/30 12:00:48;;;;;;;5.70;1.73;;;;;;;;;;2080270;27;99963;-16
2021/07/30 12:02:00;;;;;;;8.82;2.05;;;;;;;;;;2079338;28;100524;-19
2021/07/30 12:03:17;;;;;;;5.75;1.80;;;;;;;;;;2080269;28;100027;-17
2021/07/30 12:04:18;;;;;;;8.10;1.95;;;;;;;;;;2080481;28;100189;-16
2021/07/30 12:05:30;;;;;;;;;;;;;;;;;;2080649;28;99924;-17
2021/07/30 12:06:36;;;;;;;6.93;2.40;;;;;;;;;;2078364;27;100085;-16
2021/07/30 12:07:39;;;;;;;7.18;2.20;;;;;;;;;;2072887;28;99954;-18
2021/07/30 12:08:40;;;;;;;5.93;1.80;;;;;;;;;;2072713;28;99860;-18
2021/07/30 12:09:41;;;;;;;;;;;;;;;;;;2073296;28;100238;-17
2021/07/30 12:10:42;;;;;;;8.98;1.70;;;;;;;;;;2080442;28;99932;-18
2021/07/30 12:11:52;;;;;;;11.48;6.22;;;;;;;;;;2068615;28;100032;-14
2021/07/30 12:12:57;;;;;;;74.68;50.58;;;;;;;;;;2065004;28;100061;-16
2021/07/30 12:13:59;;;;;;;63.83;43.20;;;;;;;;;;2071764;28;99920;-16
2021/07/30 12:15:01;;;;;;;61.00;36.97;;;;;;;;;;2071088;28;99897;-15
2021/07/30 12:16:02;;;;;;;33.65;21.33;;;;;;;;;;2074541;27;100086;-15
2021/07/30 12:17:05;;;;;;;54.97;35.63;;;;;;;;;;2080192;28;100006;-17
2021/07/30 12:18:07;;;;;;;46.15;32.38;;;;;;;;;;2080568;28;99951;-15
2021/07/30 12:19:08;;;;;;;51.90;33.03;;;;;;;;;;2079562;28;99935;-18
2021/07/30 12:20:11;;;;;;;50.42;35.05;;;;;;;;;;2079639;28;99992;-16
2021/07/30 12:21:12;;;;;;;54.35;34.28;;;;;;;;;;2096708;27;100066;-14
2021/07/30 12:22:12;;;;;;;;;;;;;;;;;;2097216;27;100096;-17
2021/07/30 12:23:17;;;;;;;40.05;27.30;;;;;;;;;;2080702;27;100093;-19
2021/07/30 12:24:19;;;;;;;40.63;25.50;;;;;;;;;;2087795;27;100135;-19
2021/07/30 12:25:36;;;;;;;31.90;21.23;;;;;;;;;;2088004;27;99957;-20
2021/07/30 12:26:37;;;;;;;37.33;23.98;;;;;;;;;;2088869;27;99962;-19
2021/07/30 12:27:38;;;;;;;;;;;;;;;;;;2088505;27;100013;-19
2021/07/30 12:28:42;;;;;;;29.48;19.83;;;;;;;;;;2088686;27;99969;-16
2021/07/30 12:29:45;;;;;;;35.50;18.85;;;;;;;;;;2088819;27;100004;-19
2021/07/30 12:30:49;;;;;;;32.97;20.17;;;;;;;;;;2079660;28;100182;-17
2021/07/30 12:32:13;;;;;;;28.13;18.20;;;;;;;;;;2080342;27;99984;-18
2021/07/30 12:33:28;;;;;;;28.50;18.15;;;;;;;;;;2088507;27;99973;-19
2021/07/30 12:34:30;;;;;;;31.77;18.95;;;;;;;;;;2088974;27;100273;-19
2021/07/30 12:35:33;;;;;;;27.83;18.55;;;;;;;;;;2088070;27;100449;-20
2021/07/30 12:36:33;;;;;;;27.25;17.90;;;;;;;;;;2087940;27;100088;-19
2021/07/30 12:37:35;;;;;;;;;;;;;;;;;;2081444;27;100074;-19
2021/07/30 12:39:01;;;;;;;25.35;17.75;;;;;;;;;;2080075;28;100095;-17
2021/07/30 12:40:09;;;;;;;28.83;18.52;;;;;;;;;;2079837;28;100114;-17
2021/07/30 12:41:15;;;;;;;27.15;17.33;;;;;;;;;;2085667;27;99877;-18
2021/07/30 12:42:25;;;;;;;26.30;17.15;;;;;;;;;;2086338;27;100039;-17
2021/07/30 12:43:36;;;;;;;31.27;18.77;;;;;;;;;;2073965;28;100004;-16
2021/07/30 12:44:37;;;;;;;25.63;16.38;;;;;;;;;;2076376;27;99945;-16
2021/07/30 12:45:51;;;;;;;24.55;16.15;;;;;;;;;;2074441;28;100163;-15
2021/07/30 12:46:52;;;;;;;28.27;17.92;;;;;;;;;;2079701;28;99979;-20
2021/07/30 12:47:53;;;;;;;28.83;17.52;;;;;;;;;;2079125;28;100258;-16
2021/07/30 12:48:54;;;;;;;17.55;10.77;;;;;;;;;;2085041;27;100005;-19
2021/07/30 12:49:55;;;;;;;;;;;;;;;;;;2089181;27;100020;-16
2021/07/30 12:50:56;;;;;;;26.65;14.48;;;;;;;;;;2088934;27;100150;-16
2021/07/30 12:51:57;;;;;;;33.78;17.58;;;;;;;;;;2087962;27;100070;-19
2021/07/30 12:53:01;;;;;;;;;;;;;;;;;;2088708;27;100104;-15
2021/07/30 12:54:13;;;;;;;17.52;11.88;;;;;;;;;;2088560;27;99967;-18
2021/07/30 12:55:14;;;;;;;17.00;10.10;;;;;;;;;;2088434;27;100211;-18
2021/07/30 12:56:15;;;;;;;;;;;;;;;;;;2088223;27;100457;-18
2021/07/30 12:57:20;;;;;;;20.75;11.35;;;;;;;;;;2077461;28;100081;-15
2021/07/30 12:58:31;;;;;;;22.83;12.23;;;;;;;;;;2079693;27;99932;-14
2021/07/30 13:00:08;;;;;;;21.27;12.65;;;;;;;;;;2079113;28;100043;-16
2021/07/30 13:01:24;;;;;;;21.05;13.13;;;;;;;;;;2079543;28;100142;-17
2021/07/30 13:02:36;;;;;;;22.50;13.95;;;;;;;;;;2078658;27;99994;-15
2021/07/30 13:03:37;;;;;;;23.13;12.95;;;;;;;;;;2079821;27;99959;-14
2021/07/30 13:04:39;;;;;;;22.35;12.90;;;;;;;;;;2079884;27;100097;-15
2021/07/30 13:05:40;;;;;;;18.50;11.40;;;;;;;;;;2079123;28;99972;-14
2021/07/30 13:06:41;;;;;;;20.60;13.02;;;;;;;;;;2078533;28;100543;-19
2021/07/30 13:07:42;;;;;;;21.63;13.13;;;;;;;;;;2079130;28;99919;-15
2021/07/30 13:08:45;;;;;;;;;;;;;;;;;;2075183;28;100460;-17
2021/07/30 13:09:47;;;;;;;21.35;13.20;;;;;;;;;;2075009;28;100133;-18
2021/07/30 13:10:49;;;;;;;19.70;12.82;;;;;;;;;;2074416;28;100316;-19
2021/07/30 13:11:50;;;;;;;21.58;13.30;;;;;;;;;;2073705;28;100553;-15
2021/07/30 13:12:52;;;;;;;;;;;;;;;;;;2073872;28;99890;-16
2021/07/30 13:13:56;;;;;;;23.33;12.70;;;;;;;;;;2075057;28;99966;-20
2021/07/30 13:14:57;;;;;;;;;;;;;;;;;;2074848;28;99949;-17
2021/07/30 13:15:58;;;;;;;20.67;12.63;;;;;;;;;;2074102;28;100073;-16
2021/07/30 13:16:59;;;;;;;22.17;11.60;;;;;;;;;;2065488;28;99912;-16
2021/07/30 13:18:00;;;;;;;23.27;12.80;;;;;;;;;;2065961;28;99886;-16
2021/07/30 13:19:01;;;;;;;21.75;12.82;;;;;;;;;;2073512;28;100027;-16
2021/07/30 13:20:02;;;;;;;;;;;;;;;;;;2074907;28;100563;-17
2021/07/30 13:21:04;;;;;;;20.17;11.23;;;;;;;;;;2073965;28;100092;-15
2021/07/30 13:22:08;;;;;;;17.05;10.13;;;;;;;;;;2073843;28;100101;-16
2021/07/30 13:23:09;;;;;;;16.52;10.68;;;;;;;;;;2074035;28;99963;-17
2021/07/30 13:24:10;;;;;;;21.27;13.63;;;;;;;;;;2074076;28;99868;-16
2021/07/30 13:25:11;;;;;;;23.20;12.07;;;;;;;;;;2073141;28;100163;-16
2021/07/30 13:26:12;;;;;;;17.85;11.82;;;;;;;;;;2074819;28;100016;-17
2021/07/30 13:27:13;;;;;;;;;;;;;;;;;;2074415;28;100070;-15
2021/07/30 13:28:17;;;;;;;20.27;11.70;;;;;;;;;;2074546;28;100039;-17
2021/07/30 13:29:19;;;;;;;20.85;12.38;;;;;;;;;;2066093;28;99934;-17
2021/07/30 13:30:20;;;;;;;25.20;12.23;;;;;;;;;;2066559;28;100176;-15
2021/07/30 13:31:21;;;;;;;19.35;11.48;;;;;;;;;;2065343;28;100104;-14
2021/07/30 13:32:22;;;;;;;;;;;;;;;;;;2066382;28;100366;-14
2021/07/30 13:33:23;;;;;;;17.90;10.83;;;;;;;;;;2065348;28;100361;-15
2021/07/30 13:34:24;;;;;;;15.75;10.73;;;;;;;;;;2079047;27;100223;-16
2021/07/30 13:35:26;;;;;;;20.02;11.60;;;;;;;;;;2090210;27;100124;-15
2021/07/30 13:36:27;;;;;;;21.15;11.57;;;;;;;;;;2073724;28;100442;-17
2021/07/30 13:37:28;;;;;;;;;;;;;;;;;;2073687;28;100074;-15
2021/07/30 13:38:29;;;;;;;18.08;11.80;;;;;;;;;;2074711;28;99955;-15
2021/07/30 13:39:30;;;;;;;;;;;;;;;;;;2074674;28;100177;-17
2021/07/30 13:40:33;;;;;;;21.40;12.13;;;;;;;;;;2074623;28;99990;-15
2021/07/30 13:41:33;;;;;;;18.90;10.88;;;;;;;;;;2073937;28;99956;-16
2021/07/30 13:42:34;;;;;;;21.88;10.65;;;;;;;;;;2071813;28;100050;-16
2021/07/30 13:43:39;;;;;;;;;;;;;;;;;;2065472;28;100153;-16
2021/07/30 13:44:40;;;;;;;19.90;11.00;;;;;;;;;;2066085;28;99879;-15
2021/07/30 13:45:43;;;;;;;;;;;;;;;;;;2065966;28;99915;-15
2021/07/30 13:46:44;;;;;;;23.20;11.32;;;;;;;;;;2071350;28;100044;-17
2021/07/30 13:47:45;;;;;;;;;;;;;;;;;;2074007;28;99945;-17
2021/07/30 13:48:48;;;;;;;15.88;9.73;;;;;;;;;;2073482;28;100158;-15
2021/07/30 13:49:49;;;;;;;14.73;9.98;;;;;;;;;;2073284;28;100050;-16
2021/07/30 13:50:54;;;;;;;;;;;;;;;;;;2074910;28;99929;-15
2021/07/30 13:51:55;;;;;;;18.30;10.43;;;;;;;;;;2077194;28;99959;-18
2021/07/30 13:52:56;;;;;;;;;;;;;;;;;;2082700;28;99959;-17
2021/07/30 13:53:56;;;;;;;18.52;9.63;;;;;;;;;;2082476;28;100042;-17
2021/07/30 13:54:58;;;;;;;;;;;;;;;;;;2073724;28;99967;-15
2021/07/30 13:55:59;;;;;;;19.88;10.57;;;;;;;;;;2065366;28;100097;-17
2021/07/30 13:57:01;;;;;;;17.10;10.38;;;;;;;;;;2064549;28;100101;-16
2021/07/30 13:58:01;;;;;;;16.75;9.38;;;;;;;;;;2065759;28;99866;-16
2021/07/30 13:59:02;;;;;;;;;;;;;;;;;;2066203;28;99851;-15
2021/07/30 14:00:04;;;;;;;19.38;9.27;;;;;;;;;;2065430;28;100011;-15
2021/07/30 14:01:18;;;;;;;14.75;9.40;;;;;;;;;;2065402;28;99944;-14
2021/07/30 14:02:19;;;;;;;16.45;9.90;;;;;;;;;;2065831;28;99945;-18
2021/07/30 14:03:20;;;;;;;;;;;;;;;;;;2066145;28;100439;-17
2021/07/30 14:04:21;;;;;;;16.83;9.93;;;;;;;;;;2065745;28;99890;-17
2021/07/30 14:05:21;;;;;;;16.40;8.75;;;;;;;;;;2065800;28;100415;-16
2021/07/30 14:06:22;;;;;;;17.15;10.25;;;;;;;;;;2073491;28;100137;-14
2021/07/30 14:07:23;;;;;;;16.75;9.45;;;;;;;;;;2073423;28;100008;-17
2021/07/30 14:08:24;;;;;;;16.33;9.68;;;;;;;;;;2065374;28;100023;-18
2021/07/30 14:09:25;;;;;;;15.68;9.57;;;;;;;;;;2065529;28;99960;-16
2021/07/30 14:10:26;;;;;;;;;;;;;;;;;;2066522;28;99922;-18
2021/07/30 14:11:27;;;;;;;17.70;9.90;;;;;;;;;;2065064;28;100291;-18
2021/07/30 14:12:28;;;;;;;13.57;9.35;;;;;;;;;;2065483;28;99915;-17
2021/07/30 14:13:28;;;;;;;;;;;;;;;;;;2066204;28;99949;-16
2021/07/30 14:14:36;;;;;;;15.13;9.10;;;;;;;;;;2073247;28;99856;-20
2021/07/30 14:15:37;;;;;;;18.65;9.63;;;;;;;;;;2073890;28;100132;-16
2021/07/30 14:16:37;;;;;;;;;;;;;;;;;;2076510;28;99989;-16
2021/07/30 14:17:38;;;;;;;15.35;9.23;;;;;;;;;;2073029;28;100106;-15
2021/07/30 14:18:39;;;;;;;12.38;8.32;;;;;;;;;;2073578;28;100567;-17
2021/07/30 14:19:40;;;;;;;;;;;;;;;;;;2073601;28;99884;-16
2021/07/30 14:20:41;;;;;;;18.10;8.85;;;;;;;;;;2080332;28;99960;-18
2021/07/30 14:21:42;;;;;;;;;;;;;;;;;;2082622;28;100056;-17
2021/07/30 14:22:43;;;;;;;13.77;9.63;;;;;;;;;;2082399;27;100056;-15
2021/07/30 14:23:45;;;;;;;15.15;9.05;;;;;;;;;;2082122;28;100061;-16
2021/07/30 14:24:46;;;;;;;16.02;8.93;;;;;;;;;;2082163;28;100113;-15
2021/07/30 14:25:47;;;;;;;;;;;;;;;;;;2082427;27;99973;-15
2021/07/30 14:26:47;;;;;;;13.25;9.13;;;;;;;;;;2077201;28;100198;-16
2021/07/30 14:27:48;;;;;;;;;;;;;;;;;;2073761;28;99902;-19
2021/07/30 14:28:49;;;;;;;13.95;8.57;;;;;;;;;;2073967;28;99868;-14
2021/07/30 14:29:50;;;;;;;;;;;;;;;;;;2071210;28;100123;-18
2021/07/30 14:30:51;;;;;;;13.73;7.60;;;;;;;;;;2073925;28;99859;-17
2021/07/30 14:31:52;;;;;;;15.27;8.77;;;;;;;;;;2073848;28;99872;-15
2021/07/30 14:32:53;;;;;;;;;;;;;;;;;;2074022;28;100090;-17
2021/07/30 14:33:54;;;;;;;14.80;8.70;;;;;;;;;;2073143;28;100054;-18
2021/07/30 14:34:55;;;;;;;11.50;7.90;;;;;;;;;;2073032;28;100040;-16
2021/07/30 14:35:55;;;;;;;;;;;;;;;;;;2073658;28;100659;-18
2021/07/30 14:36:56;;;;;;;17.63;7.90;;;;;;;;;;2072513;28;100165;-15
2021/07/30 14:37:58;;;;;;;15.05;8.70;;;;;;;;;;2073240;28;99856;-18
2021/07/30 14:38:59;;;;;;;12.95;7.93;;;;;;;;;;2073758;28;100011;-17
2021/07/30 14:40:01;;;;;;;14.07;8.07;;;;;;;;;;2061920;28;101837;-18
2021/07/30 14:41:02;;;;;;;11.95;7.82;;;;;;;;;;2072086;28;100228;-16
2021/07/30 14:42:02;;;;;;;;;;;;;;;;;;2081250;28;100141;-18
2021/07/30 14:43:04;;;;;;;17.30;8.05;;;;;;;;;;2072546;28;100444;-19
2021/07/30 14:44:05;;;;;;;16.58;8.05;;;;;;;;;;2072637;28;100171;-15
2021/07/30 14:45:06;;;;;;;;;;;;;;;;;;2071268;28;100042;-17
2021/07/30 14:46:10;;;;;;;16.92;8.23;;;;;;;;;;2066110;28;100082;-18
2021/07/30 14:47:11;;;;;;;12.45;7.63;;;;;;;;;;2075618;28;99947;-15
2021/07/30 14:48:12;;;;;;;;;;;;;;;;;;2081827;27;99999;-18
2021/07/30 14:49:14;;;;;;;12.40;7.82;;;;;;;;;;2081936;28;100060;-16
2021/07/30 14:50:15;;;;;;;13.30;8.23;;;;;;;;;;2080976;28;99994;-15
2021/07/30 14:51:16;;;;;;;13.88;7.93;;;;;;;;;;2081647;28;99937;-14
2021/07/30 14:52:17;;;;;;;;;;;;;;;;;;2082954;28;100107;-18
2021/07/30 14:53:18;;;;;;;16.45;8.00;;;;;;;;;;2082286;28;99875;-15
2021/07/30 14:54:18;;;;;;;;;;;;;;;;;;2082550;28;99968;-18
2021/07/30 14:55:19;;;;;;;15.70;8.05;;;;;;;;;;2081393;28;100197;-18
2021/07/30 14:56:21;;;;;;;13.05;7.20;;;;;;;;;;2081787;28;100152;-18
2021/07/30 14:57:21;;;;;;;14.35;7.32;;;;;;;;;;2081200;28;100188;-15
2021/07/30 14:58:22;;;;;;;;;;;;;;;;;;2073781;28;100106;-18
2021/07/30 14:59:23;;;;;;;12.88;7.30;;;;;;;;;;2072972;28;100065;-17
2021/07/30 15:00:24;;;;;;;;;;;;;;;;;;2081982;28;100045;-17
2021/07/30 15:01:27;;;;;;;10.52;7.25;;;;;;;;;;2082094;28;99980;-15
2021/07/30 15:02:28;;;;;;;13.75;7.43;;;;;;;;;;2082108;27;99902;-17
2021/07/30 15:03:29;;;;;;;;;;;;;;;;;;2082052;28;100042;-18
2021/07/30 15:04:30;;;;;;;12.75;7.55;;;;;;;;;;2082335;28;100532;-17
2021/07/30 15:05:31;;;;;;;18.08;7.55;;;;;;;;;;2081721;28;100023;-17
2021/07/30 15:06:37;;;;;;;12.98;7.20;;;;;;;;;;2081556;28;100226;-17
2021/07/30 15:07:38;;;;;;;11.77;6.50;;;;;;;;;;2082262;28;99857;-15
2021/07/30 15:08:40;;;;;;;19.90;7.90;;;;;;;;;;2082074;27;99858;-17
2021/07/30 15:09:40;;;;;;;12.82;7.57;;;;;;;;;;2081261;28;100498;-16
2021/07/30 15:10:44;;;;;;;;;;;;;;;;;;2082022;28;100010;-19
2021/07/30 15:11:45;;;;;;;13.13;6.72;;;;;;;;;;2082176;27;99974;-17
2021/07/30 15:12:46;;;;;;;;;;;;;;;;;;2082500;28;99974;-16
2021/07/30 15:13:47;;;;;;;17.05;7.28;;;;;;;;;;2081026;28;100047;-14
2021/07/30 15:14:48;;;;;;;12.85;6.65;;;;;;;;;;2081348;28;100017;-17
2021/07/30 15:15:49;;;;;;;;;;;;;;;;;;2081470;28;99875;-18
2021/07/30 15:16:49;;;;;;;9.95;6.85;;;;;;;;;;2081763;28;100121;-17
2021/07/30 15:17:50;;;;;;;14.40;7.20;;;;;;;;;;2081966;27;100143;-17
2021/07/30 15:18:51;;;;;;;13.80;7.55;;;;;;;;;;2081209;28;99927;-18
2021/07/30 15:19:52;;;;;;;15.75;7.90;;;;;;;;;;2081482;28;99961;-19
2021/07/30 15:20:53;;;;;;;;;;;;;;;;;;2082569;28;99999;-16
2021/07/30 15:21:54;;;;;;;14.00;7.53;;;;;;;;;;2081772;28;100071;-19
2021/07/30 15:22:55;;;;;;;12.93;6.85;;;;;;;;;;2082215;28;100077;-17
2021/07/30 15:23:55;;;;;;;;;;;;;;;;;;2082690;28;99956;-18
2021/07/30 15:24:56;;;;;;;14.43;7.40;;;;;;;;;;2082282;28;99973;-15
2021/07/30 15:25:58;;;;;;;11.27;6.20;;;;;;;;;;2081725;28;100202;-18
2021/07/30 15:26:59;;;;;;;11.63;7.00;;;;;;;;;;2081455;28;99997;-17
2021/07/30 15:28:00;;;;;;;;;;;;;;;;;;2081839;28;100059;-16
2021/07/30 15:29:04;;;;;;;11.57;6.18;;;;;;;;;;2081889;28;99866;-16
2021/07/30 15:30:05;;;;;;;12.48;5.93;;;;;;;;;;2081991;28;99957;-16
2021/07/30 15:31:08;;;;;;;12.32;5.72;;;;;;;;;;2081946;28;100518;-16
2021/07/30 15:32:12;;;;;;;11.38;6.25;;;;;;;;;;2081379;28;99945;-17
2021/07/30 15:33:13;;;;;;;11.77;7.15;;;;;;;;;;2081042;28;100000;-15
2021/07/30 15:34:14;;;;;;;;;;;;;;;;;;2081601;28;100105;-17
2021/07/30 15:35:15;;;;;;;11.38;6.55;;;;;;;;;;2082052;28;99977;-16
2021/07/30 15:36:20;;;;;;;;;;;;;;;;;;2082056;28;99984;-16
2021/07/30 15:37:21;;;;;;;13.90;6.18;;;;;;;;;;2074604;28;100281;-18
2021/07/30 15:38:22;;;;;;;;;;;;;;;;;;2073937;28;100704;-16
2021/07/30 15:39:27;;;;;;;12.63;6.40;;;;;;;;;;2072970;28;101019;-16
2021/07/30 15:40:28;;;;;;;13.20;6.68;;;;;;;;;;2073315;28;99872;-18
2021/07/30 15:41:28;;;;;;;;;;;;;;;;;;2073134;28;100269;-16
2021/07/30 15:42:29;;;;;;;10.70;5.47;;;;;;;;;;2073006;28;99935;-18
2021/07/30 15:43:30;;;;;;;11.68;5.22;;;;;;;;;;2073925;28;99876;-18
2021/07/30 15:44:31;;;;;;;11.70;6.22;;;;;;;;;;2072711;28;100053;-18
2021/07/30 15:45:34;;;;;;;11.07;5.75;;;;;;;;;;2073204;28;100009;-16
2021/07/30 15:46:35;;;;;;;11.52;5.28;;;;;;;;;;2072905;28;100076;-17
2021/07/30 15:47:36;;;;;;;12.57;5.93;;;;;;;;;;2056647;28;99886;-16
2021/07/30 15:48:38;;;;;;;10.15;5.07;;;;;;;;;;2056673;28;100217;-17
2021/07/30 15:49:39;;;;;;;14.60;5.20;;;;;;;;;;2056953;28;99918;-18
2021/07/30 15:50:40;;;;;;;;;;;;;;;;;;2073492;28;100049;-18
2021/07/30 15:51:40;;;;;;;9.35;5.15;;;;;;;;;;2073210;28;99919;-16
2021/07/30 15:52:41;;;;;;;;;;;;;;;;;;2074053;28;100153;-16
2021/07/30 15:53:43;;;;;;;8.73;5.18;;;;;;;;;;2073397;28;100981;-17
2021/07/30 15:54:47;;;;;;;7.28;5.03;;;;;;;;;;2073565;28;99964;-18
2021/07/30 15:55:48;;;;;;;9.93;5.60;;;;;;;;;;2072480;28;99923;-17
2021/07/30 15:56:49;;;;;;;;;;;;;;;;;;2073230;28;99901;-18
2021/07/30 15:57:50;;;;;;;14.13;5.50;;;;;;;;;;2072549;28;99995;-18
2021/07/30 15:58:54;;;;;;;10.98;5.28;;;;;;;;;;2073341;28;99908;-18
2021/07/30 15:59:54;;;;;;;15.98;5.05;;;;;;;;;;2073527;28;100042;-16
2021/07/30 16:00:55;;;;;;;;;;;;;;;;;;2073934;28;100315;-15
2021/07/30 16:01:56;;;;;;;10.93;5.00;;;;;;;;;;2073388;28;100565;-16
2021/07/30 16:02:57;;;;;;;8.85;4.60;;;;;;;;;;2072583;28;99916;-16
2021/07/30 16:03:58;;;;;;;;;;;;;;;;;;2072795;28;100083;-18
2021/07/30 16:04:59;;;;;;;12.50;5.47;;;;;;;;;;2073336;28;100034;-16
2021/07/30 16:06:00;;;;;;;8.45;5.40;;;;;;;;;;2064012;28;100081;-17
2021/07/30 16:07:01;;;;;;;15.07;5.80;;;;;;;;;;2056687;28;100015;-17
2021/07/30 16:08:03;;;;;;;13.60;5.25;;;;;;;;;;2072520;28;99981;-16
2021/07/30 16:09:05;;;;;;;11.20;4.55;;;;;;;;;;2072950;28;100064;-15
2021/07/30 16:10:06;;;;;;;12.23;5.45;;;;;;;;;;2064623;28;100026;-18
2021/07/30 16:11:13;;;;;;;11.82;6.05;;;;;;;;;;2064579;28;100025;-16
2021/07/30 16:12:16;;;;;;;10.90;5.47;;;;;;;;;;2072038;28;100071;-18
2021/07/30 16:13:17;;;;;;;11.20;5.53;;;;;;;;;;2073290;28;99978;-17
2021/07/30 16:14:18;;;;;;;12.43;5.85;;;;;;;;;;2073259;28;100110;-17
2021/07/30 16:15:19;;;;;;;;;;;;;;;;;;2073788;28;99922;-17
2021/07/30 16:16:19;;;;;;;13.57;5.35;;;;;;;;;;2073212;28;100137;-16
2021/07/30 16:17:20;;;;;;;;;;;;;;;;;;2073705;28;100410;-15
2021/07/30 16:18:21;;;;;;;13.23;5.43;;;;;;;;;;2073494;28;100316;-18
2021/07/30 16:19:22;;;;;;;9.48;5.22;;;;;;;;;;2072822;28;99993;-17
2021/07/30 16:20:23;;;;;;;;;;;;;;;;;;2072948;28;100033;-18
2021/07/30 16:21:25;;;;;;;9.07;5.32;;;;;;;;;;2073545;28;99995;-16
2021/07/30 16:22:26;;;;;;;9.00;4.90;;;;;;;;;;2073332;28;99900;-17
2021/07/30 16:23:27;;;;;;;;;;;;;;;;;;2073427;28;100073;-15
2021/07/30 16:24:28;;;;;;;10.63;5.43;;;;;;;;;;2072634;28;100168;-18
2021/07/30 16:25:30;;;;;;;11.82;5.63;;;;;;;;;;2073680;28;99840;-18
2021/07/30 16:26:31;;;;;;;11.88;4.82;;;;;;;;;;2072315;28;99893;-16
2021/07/30 16:27:32;;;;;;;14.70;5.57;;;;;;;;;;2072381;28;100220;-17
2021/07/30 16:28:33;;;;;;;13.88;5.35;;;;;;;;;;2072076;28;100071;-17
2021/07/30 16:29:34;;;;;;;;;;;;;;;;;;2064704;28;100136;-19
2021/07/30 16:30:35;;;;;;;8.85;4.90;;;;;;;;;;2072754;28;100363;-18
2021/07/30 16:31:36;;;;;;;13.07;5.65;;;;;;;;;;2073132;28;99930;-18
2021/07/30 16:32:36;;;;;;;;;;;;;;;;;;2072385;28;100901;-16
2021/07/30 16:33:45;;;;;;;6.78;4.50;;;;;;;;;;2072773;28;100278;-18
2021/07/30 16:34:46;;;;;;;9.70;5.43;;;;;;;;;;2072915;28;100079;-18
2021/07/30 16:35:47;;;;;;;;;;;;;;;;;;2073693;28;100037;-16
2021/07/30 16:36:48;;;;;;;13.50;4.78;;;;;;;;;;2073258;28;100863;-18
2021/07/30 16:37:48;;;;;;;11.00;5.55;;;;;;;;;;2073127;28;100675;-17
2021/07/30 16:38:49;;;;;;;10.05;4.97;;;;;;;;;;2073132;28;100370;-17
2021/07/30 16:39:50;;;;;;;11.43;5.00;;;;;;;;;;2073024;28;100027;-18
2021/07/30 16:40:54;;;;;;;6.88;4.95;;;;;;;;;;2073107;28;99924;-16
2021/07/30 16:41:55;;;;;;;9.05;4.72;;;;;;;;;;2071655;28;100140;-16
2021/07/30 16:42:56;;;;;;;;;;;;;;;;;;2072968;28;100060;-18
2021/07/30 16:43:57;;;;;;;7.90;4.80;;;;;;;;;;2074332;28;100495;-17
2021/07/30 16:44:57;;;;;;;12.20;5.65;;;;;;;;;;2074395;28;99944;-17
2021/07/30 16:45:58;;;;;;;;;;;;;;;;;;2075421;28;100342;-17
2021/07/30 16:46:59;;;;;;;10.77;5.57;;;;;;;;;;2074711;28;100037;-16
2021/07/30 16:48:02;;;;;;;;;;;;;;;;;;2075385;28;99814;-18
2021/07/30 16:49:03;;;;;;;7.93;4.68;;;;;;;;;;2074528;28;99987;-18
2021/07/30 16:50:06;;;;;;;8.70;5.07;;;;;;;;;;2074953;28;100049;-18
2021/07/30 16:51:16;;;;;;;8.23;4.95;;;;;;;;;;2073630;28;100710;-25
2021/07/30 16:52:17;;;;;;;8.80;5.43;;;;;;;;;;2075436;28;100750;-19
2021/07/30 16:53:23;;;;;;;;;;;;;;;;;;2082414;28;99879;-20
2021/07/30 16:54:24;;;;;;;8.73;4.10;;;;;;;;;;2074674;28;99926;-17
2021/07/30 16:55:25;;;;;;;9.35;4.93;;;;;;;;;;2074273;28;100006;-19
2021/07/30 16:56:27;;;;;;;9.75;4.82;;;;;;;;;;2073407;28;100802;-19
2021/07/30 16:57:28;;;;;;;;;;;;;;;;;;2074278;28;99878;-18
2021/07/30 16:58:29;;;;;;;7.93;4.30;;;;;;;;;;2074002;28;100031;-17
2021/07/30 16:59:31;;;;;;;8.77;4.53;;;;;;;;;;2073614;28;99942;-18
2021/07/30 17:00:33;;;;;;;8.73;4.72;;;;;;;;;;2065555;28;99939;-19
2021/07/30 17:01:34;;;;;;;8.48;5.53;;;;;;;;;;2065284;28;100021;-19
2021/07/30 17:02:34;;;;;;;;;;;;;;;;;;2074702;28;100000;-20
2021/07/30 17:03:35;;;;;;;7.78;4.63;;;;;;;;;;2074191;28;100207;-18
2021/07/30 17:04:36;;;;;;;13.23;4.47;;;;;;;;;;2074827;28;99919;-19
2021/07/30 17:05:37;;;;;;;11.40;4.93;;;;;;;;;;2074562;28;99897;-18
2021/07/30 17:06:38;;;;;;;;;;;;;;;;;;2074479;28;100104;-20
2021/07/30 17:07:39;;;;;;;11.68;5.53;;;;;;;;;;2074157;28;99874;-16
2021/07/30 17:08:41;;;;;;;9.88;4.95;;;;;;;;;;2074386;28;100943;-19
2021/07/30 17:09:42;;;;;;;11.52;5.45;;;;;;;;;;2074859;28;99924;-19
2021/07/30 17:10:42;;;;;;;;;;;;;;;;;;2074550;28;100061;-16
2021/07/30 17:11:44;;;;;;;14.07;5.18;;;;;;;;;;2073886;28;100049;-17
2021/07/30 17:12:45;;;;;;;11.35;4.88;;;;;;;;;;2074691;28;99947;-18
2021/07/30 17:13:46;;;;;;;10.05;5.95;;;;;;;;;;2073173;28;100054;-20
2021/07/30 17:14:47;;;;;;;8.43;4.53;;;;;;;;;;2073302;28;100052;-20
2021/07/30 17:15:48;;;;;;;;;;;;;;;;;;2074981;28;100011;-15
2021/07/30 17:16:50;;;;;;;10.25;4.90;;;;;;;;;;2073787;28;100037;-16
2021/07/30 17:17:51;;;;;;;12.32;5.65;;;;;;;;;;2073795;28;100327;-14
2021/07/30 17:18:52;;;;;;;;;;;;;;;;;;2074789;28;100050;-16
2021/07/30 17:19:53;;;;;;;10.32;4.72;;;;;;;;;;2074757;28;99936;-15
2021/07/30 17:20:54;;;;;;;;;;;;;;;;;;2075090;28;100048;-18
2021/07/30 17:21:55;;;;;;;7.55;4.72;;;;;;;;;;2074946;28;99982;-17
2021/07/30 17:22:56;;;;;;;11.57;4.90;;;;;;;;;;2064920;28;99964;-18
2021/07/30 17:23:57;;;;;;;11.35;4.88;;;;;;;;;;2056943;28;99966;-16
2021/07/30 17:24:58;;;;;;;12.20;5.05;;;;;;;;;;2073682;28;100103;-17
2021/07/30 17:25:59;;;;;;;;;;;;;;;;;;2074663;28;100041;-17
2021/07/30 17:27:00;;;;;;;9.25;4.97;;;;;;;;;;2073583;28;99871;-16
2021/07/30 17:28:00;;;;;;;12.45;4.43;;;;;;;;;;2073801;28;99928;-18
2021/07/30 17:29:02;;;;;;;;;;;;;;;;;;2074181;28;99918;-15
2021/07/30 17:30:05;;;;;;;7.60;4.32;;;;;;;;;;2074071;28;100012;-18
2021/07/30 17:31:05;;;;;;;7.63;4.65;;;;;;;;;;2074068;28;100093;-17
2021/07/30 17:32:06;;;;;;;;;;;;;;;;;;2073878;28;100091;-17
2021/07/30 17:33:07;;;;;;;9.52;4.70;;;;;;;;;;2074057;28;100107;-18
2021/07/30 17:34:09;;;;;;;10.80;5.40;;;;;;;;;;2074492;28;100141;-15
2021/07/30 17:35:10;;;;;;;9.55;5.07;;;;;;;;;;2074588;28;99898;-18
2021/07/30 17:36:11;;;;;;;;;;;;;;;;;;2075115;28;100297;-20
2021/07/30 17:37:12;;;;;;;9.07;4.10;;;;;;;;;;2074357;28;99954;-19
2021/07/30 17:38:13;;;;;;;10.23;5.50;;;;;;;;;;2074043;28;99989;-18
2021/07/30 17:39:14;;;;;;;9.30;4.70;;;;;;;;;;2074484;28;100069;-19
2021/07/30 17:40:15;;;;;;;;;;;;;;;;;;2074708;28;100039;-18
2021/07/30 17:41:16;;;;;;;7.97;5.30;;;;;;;;;;2074852;28;99964;-18
2021/07/30 17:42:17;;;;;;;8.25;4.35;;;;;;;;;;2074332;28;99972;-19
2021/07/30 17:43:19;;;;;;;8.23;5.00;;;;;;;;;;2074451;28;99828;-20
2021/07/30 17:44:20;;;;;;;13.65;5.32;;;;;;;;;;2065352;28;100131;-18
2021/07/30 17:45:21;;;;;;;;;;;;;;;;;;2065742;28;100065;-19
2021/07/30 17:46:24;;;;;;;11.05;4.72;;;;;;;;;;2074606;28;99830;-16
2021/07/30 17:47:25;;;;;;;7.90;4.40;;;;;;;;;;2074167;28;99920;-16
2021/07/30 17:48:26;;;;;;;11.05;4.93;;;;;;;;;;2074286;28;99992;-17
2021/07/30 17:49:27;;;;;;;;;;;;;;;;;;2074389;28;100003;-14
2021/07/30 17:50:28;;;;;;;10.93;5.13;;;;;;;;;;2074446;28;99943;-17
2021/07/30 17:51:29;;;;;;;7.30;4.85;;;;;;;;;;2073430;28;99988;-16
2021/07/30 17:52:30;;;;;;;9.90;4.65;;;;;;;;;;2073489;28;100011;-18
2021/07/30 17:53:32;;;;;;;12.27;5.25;;;;;;;;;;2074119;28;99943;-19
2021/07/30 17:54:34;;;;;;;8.07;4.78;;;;;;;;;;2073679;28;99872;-17
2021/07/30 17:55:35;;;;;;;8.80;4.68;;;;;;;;;;2074173;28;100094;-17
2021/07/30 17:56:35;;;;;;;;;;;;;;;;;;2074708;28;100035;-17
2021/07/30 17:57:36;;;;;;;13.13;5.07;;;;;;;;;;2073579;28;100011;-16
2021/07/30 17:58:37;;;;;;;;;;;;;;;;;;2073776;28;100370;-16
2021/07/30 17:59:38;;;;;;;9.15;5.00;;;;;;;;;;2074480;28;99983;-15
2021/07/30 18:00:39;;;;;;;10.40;4.57;;;;;;;;;;2073879;28;99888;-15
2021/07/30 18:01:40;;;;;;;;;;;;;;;;;;2075003;28;100031;-17
2021/07/30 18:02:41;;;;;;;6.68;4.05;;;;;;;;;;2073894;28;100035;-18
2021/07/30 18:03:43;;;;;;;9.95;5.10;;;;;;;;;;2073002;28;100419;-17
2021/07/30 18:04:44;;;;;;;9.35;4.43;;;;;;;;;;2064720;28;100354;-16
2021/07/30 18:05:45;;;;;;;;;;;;;;;;;;2074254;28;100677;-17
2021/07/30 18:06:46;;;;;;;10.25;4.70;;;;;;;;;;2074113;28;100031;-17
2021/07/30 18:07:47;;;;;;;6.78;4.43;;;;;;;;;;2074412;28;99996;-17
2021/07/30 18:08:48;;;;;;;;;;;;;;;;;;2074511;28;99901;-19
2021/07/30 18:09:49;;;;;;;7.70;4.18;;;;;;;;;;2077090;28;100019;-18
2021/07/30 18:10:50;;;;;;;;;;;;;;;;;;2082650;27;99878;-16
2021/07/30 18:11:51;;;;;;;8.65;4.07;;;;;;;;;;2076934;28;99909;-18
2021/07/30 18:12:52;;;;;;;9.18;3.70;;;;;;;;;;2072838;28;100022;-18